Pennsburg, Pennsylvania
Current Conditions -  °F | °C
As of 10:55 PM on Wednesday 17 Dec 2014 (Local Time) from KUKT Reporting Station
Clear Clear  
Wind Chill: 31°   Ceiling: Unl
Heat Index: 36°   Visibility: 10mi
Dew Point: 23°   Wind: 6mph
Humidity: 60%   Direction: 290°WNW
Pressure: 29.96"   Gusts: 20mph
Location:  40.39°N, 75.49°W
Report Text: KUKT 180355Z AUTO 29005G17KT 10SM CLR 02/M05 A2996 RMK AO1
Loading
Personal Weather Stations






























Interactive Weather Map New forecast layout! Learn more

10-Day Weather Forecast

Advertisements
Track Severe Weather on mobile